嘉手納基地の過去48時間の天気

嘉手納基地 (Kadena ab)

現在時刻: 8/18 22:40 JST (8/18 13:40 UTC) 以下の時間は現地時間です。

過去48時間のMETAR気象情報
時間 風向 風速(m/s) 視程 気温(℃) 湿度(%) 気圧(hPa) 天気現象
18 21:56 3 10km以上 29 80 1010.6
18 20:56 南南東 5 10km以上 29.2 78 1010.2
18 19:56 6 10km以上 29.4 77 1010.2
18 18:56 南南東 6 10km以上 30 74 1010.3
18 17:56 6 10km以上 30.9 70 1009.9
18 17:41 6 10km以上 31 70 1009.9
18 17:11 6 10km以上 32 67 1009.9
18 16:56 6 10km以上 31.5 69 1009.9
18 16:11 南南東 6 10km以上 33 63 1009.9
18 15:56 南南東 6 10km以上 32.2 65 1009.9
18 14:56 南南東 5 10km以上 32.8 64 1009.9
18 13:56 南南東 6 10km以上 33 62 1010.2
18 13:47 7 10km以上 33 63 1010.2
18 13:18 南東 7 10km以上 33 63 1010.6
18 12:56 5 10km以上 32.9 64 1010.6
18 12:11 6 10km以上 32 67 1010.9
18 11:56 南南東 6 10km以上 32.2 68 1010.6
18 11:26 5 10km以上 32 67 1010.9
18 10:56 5 10km以上 31.8 72 1010.9
18 09:56 6 10km以上 31.8 69 1010.6
18 08:56 7 10km以上 30.8 73 1010.2
18 07:56 5 10km以上 29.9 77 1009.9
18 06:56 3 10km以上 28.1 85 1009.3
18 05:56 3 10km以上 27.7 88 1008.9
18 04:56 4 10km以上 27.6 90 1008.9
18 03:56 南南東 4 10km以上 27.4 89 1009.2
18 03:50 南南東 3 10km以上 27 89 1009.2
18 03:35 4 10km以上 27 89 1009.2
18 03:22 3 10km以上 27 94 1009.6 弱い雨
18 03:03 南南東 3 10km以上 28 89 1009.6 弱い雨
18 02:57 南南東 3 10km以上 28 89 1009.2
18 02:56 南南東 3 10km以上 27.7 89 1009.2 弱い雨
18 01:56 南南東 2 10km以上 27.5 91 1009.9
18 00:56 静穏 0 10km以上 26.9 93 1010.2
17 23:56 南南東 2 10km以上 27.3 91 1010.6
17 23:31 南東 2 10km以上 28 89 1010.9
17 23:19 南東 2 10km以上 28 89 1010.9 弱い雨
17 23:09 南東 2 10km以上 27 94 1010.6
17 22:58 南東 5 10km以上 27 89 1010.6 弱い雨
17 22:23 南西 2 10km以上 26 89 1010.6
17 22:09 南南西 6 10km以上 26 89 1010.9 強い雨
17 21:57 南南東 4 10km以上 28 89 1010.6 雷雨
17 20:56 南南東 4 10km以上 28.7 84 1009.9
17 19:56 北北東 2 10km以上 27.9 88 1009.2
17 18:56 静穏 0 10km以上 28.8 84 1008.9
17 17:40 西北西 2 10km以上 29 84 1008 弱い雨
17 17:08 南南西 3 10km以上 30 79 1008.6
17 16:56 南西 3 10km以上 29.8 78 1008.6
17 16:47 南南西 3 10km以上 30 79 1008.2
17 16:39 南南西 3 10km以上 30 75 1008.2
17 16:26 南西 4 10km以上 30 79 1008.2
17 15:56 南南西 5 10km以上 30.1 80 1008.6
17 15:47 南南西 5 10km以上 30 79 1008.2
17 15:17 西南西 4 10km以上 30 79 1008.6
17 15:00 西 3 10km以上 31 75 1008.5 弱い雨
17 14:56 西北西 3 10km以上 30.4 79 1008.2
17 14:43 西北西 4 10km以上 31 79 1008.5
17 14:24 西北西 4 10km以上 31 75 1008.5 弱い雨
17 13:56 西北西 4 10km以上 32.4 70 1008.5
17 12:56 南南東 3 10km以上 33.6 61 1008.9
17 11:56 2 10km以上 32.9 63 1009.5
17 10:56 東南東 3 10km以上 32.5 65 1009.5
17 10:41 南南東 4 10km以上 32 71 1009.9
17 09:56 南東 4 10km以上 31.9 67 1009.2
17 08:56 東南東 4 10km以上 31.1 72 1009.6
17 07:56 南東 5 10km以上 30 77 1009.2
17 06:56 南東 2 10km以上 29.1 81 1009.2
17 05:56 南東 2 10km以上 28 85 1008.9
17 04:56 静穏 0 10km以上 27.4 86 1008.9
17 03:56 南南東 3 10km以上 28 85 1009.2
17 02:56 南南東 2 10km以上 28.2 85 1009.5
17 01:56 2 10km以上 28.2 86 1009.5
17 00:56 南南東 3 10km以上 28.2 86 1009.2
16 23:56 2 10km以上 28.4 86 1009.9
16 22:56 静穏 0 10km以上 28.4 86 1009.9
RODN 181256Z AUTO 17005KT 10SM SCT021 29/25 A2983 RMK AO2 SLP106 T02900252 $
RODN 181156Z AUTO 16009KT 10SM CLR 29/25 A2982 RMK AO2 SLP102 T02920249 10328 20292 51003 $
RODN 181056Z AUTO 18012KT 10SM CLR 29/25 A2982 RMK AO2 SLP102 T02940249 $
RODN 180956Z AUTO 15011KT 10SM SCT024 30/25 A2982 RMK AO2 SLP103 T03000248 $
RODN 180856Z AUTO 17012KT 10SM SCT028 SCT034 31/25 A2981 RMK AO2 SLP099 T03090247 53002 $
RODN 180841Z AUTO 17011KT 10SM BKN028 BKN036 31/25 A2981 RMK AO2 SLP099 $
RODN 180811Z AUTO 18011KT 10SM FEW028 32/25 A2981 RMK AO2 SLP099 $
RODN 180756Z AUTO 17012KT 10SM BKN028 32/25 A2981 RMK AO2 SLP099 T03150251 $
RODN 180711Z AUTO 16012KT 10SM OVC029 33/25 A2981 RMK AO2 SLP099 $
RODN 180656Z AUTO 16011KT 10SM OVC030 32/25 A2981 RMK AO2 SLP099 T03220247 $
RODN 180556Z AUTO 15010G19KT 10SM BKN032 BKN043 33/25 A2981 RMK AO2 SLP099 T03280250 10332 20305 57009 $
RODN 180456Z AUTO 15011G17KT 10SM BKN032 BKN039 BKN170 33/25 A2982 RMK AO2 SLP102 T03300247 $
RODN 180447Z AUTO 18014KT 10SM BKN032 33/25 A2982 RMK AO2 WSHFT 41 SLP102 $
RODN 180418Z AUTO 13013KT 10SM BKN031 BKN044 33/25 A2983 RMK AO2 WSHFT 05 SLP106 $
RODN 180356Z AUTO 18010G20KT 10SM FEW033 FEW120 SCT150 SCT190 33/25 A2983 RMK AO2 SLP106 T03290251 $
RODN 180311Z AUTO 18011KT 10SM SCT029 BKN044 BKN180 32/25 A2984 RMK AO2 SLP109 $
RODN 180256Z AUTO 16012KT 10SM BKN029 BKN047 BKN150 32/26 A2983 RMK AO2 SLP106 T03220255 50005 $
RODN 180226Z AUTO 18009KT 10SM BKN029 BKN035 32/25 A2984 RMK AO2 CIG 029V035 SLP109 $
RODN 180156Z AUTO 17009KT 10SM FEW028 SCT035 BKN047 BKN055 32/26 A2984 RMK AO2 SLP109 T03180261 $
RODN 180056Z AUTO 17011G17KT 10SM SCT029 32/25 A2983 RMK AO2 SLP106 T03180254 $
RODN 172356Z 19013KT 10SM CLR 31/25 A2982 RMK AO2A SLP102 60000 T03080253 10308 20271 52011 $
RODN 172256Z AUTO 18009KT 10SM CLR 30/25 A2981 RMK AO2 SLP099 T02990254 $
RODN 172156Z AUTO 17006KT 10SM CLR 28/25 A2979 RMK AO2 SLP093 T02810253 $
RODN 172056Z AUTO 18006KT 10SM CLR 28/26 A2978 RMK AO2 SLP089 60000 T02770255 55003 $
RODN 171956Z AUTO 17008KT 10SM CLR 28/26 A2978 RMK AO2 SLP089 T02760258 $
RODN 171856Z AUTO 16008KT 10SM FEW019 FEW026 27/25 A2979 RMK AO2 RAE1757RAB03E18RAB22E35 SLP092 P0000 T02740254 $
RODN 171850Z AUTO 16006KT 10SM FEW018 FEW026 SCT060 27/25 A2979 RMK AO2 RAE1757RAB03E18RAB22E35 SLP092 $
RODN 171835Z AUTO 17008KT 10SM SCT019 BKN026 27/25 A2979 RMK AO2 RAE1757RAB03E18RAB22E35 CIG 026V044 SLP092 $
RODN 171822Z AUTO 19005KT 10SM -RA FEW015 SCT021 SCT044 27/26 A2980 RMK AO2 RAE1757RAB03E18RAB22 SLP096 $
RODN 171803Z AUTO 16005KT 10SM -RA FEW022 SCT029 SCT043 28/26 A2980 RMK AO2 RAE1757RAB03 SLP096 $
RODN 171757Z AUTO 15006KT 10SM FEW046 28/26 A2979 RMK AO2 RAE57 SLP092 $
RODN 171756Z AUTO 15006KT 10SM -RA FEW046 28/26 A2979 RMK AO2 RAB50 SLP092 P0000 60000 T02770257 10287 20259 57014 $
RODN 171656Z AUTO 15004KT 10SM CLR 28/26 A2981 RMK AO2 SLP099 T02750259 $
RODN 171556Z 00000KT 10SM FEW024 27/26 A2982 RMK AO2A SLP102 T02690256 $
RODN 171456Z AUTO 16004KT 10SM FEW065 FEW080 27/26 A2983 RMK AO2 RAB1358E09RAB19E31 SLP106 P0000 60000 T02730257 403390259 51008 $
RODN 171431Z AUTO 14004KT 10SM FEW020 OVC065 28/26 A2984 RMK AO2 RAB1358E09RAB19E31 SLP109 $
RODN 171419Z AUTO 13004KT 10SM -RA FEW020 SCT027 SCT040 OVC055 28/26 A2984 RMK AO2 RAB1358E09RAB19 SLP109 $
RODN 171409Z AUTO 14003KT 9SM SCT021 SCT040 BKN050 27/26 A2983 RMK AO2 RAB1358E09 SLP106 $
RODN 171358Z AUTO 13010KT 9SM -RA FEW019 FEW034 SCT050 27/25 A2983 RMK AO2 RAB58 SLP106 $
RODN 171323Z AUTO 23004KT 10SM FEW015 FEW021 SCT030 BKN040 BKN070 26/24 A2983 RMK AO2 RAB1256E23 TSE09 SLP106 $
RODN 171309Z AUTO 21011G21KT 6SM +RA FEW015 FEW021 SCT031 BKN040 26/24 A2984 RMK AO2 RAB1256 TSE09 SLP109 $
RODN 171257Z AUTO 16008KT 10SM TSRA FEW038 28/26 A2983 RMK AO2 RAB56 SLP106 $
RODN 171156Z AUTO 15007KT 10SM FEW040 SCT050 BKN065 29/26 A2981 RMK AO2 SLP099 60000 T02870257 10305 20276 52013 $
RODN 171056Z AUTO 02003KT 10SM FEW050 28/26 A2979 RMK AO2 SLP092 T02790257 $
RODN 170956Z AUTO 00000KT 10SM FEW019 29/26 A2978 RMK AO2 RAE0859 SLP089 P0000 T02880258 $
RODN 170840Z AUTO 29003KT 10SM -RA BKN065 OVC085 29/26 A2977 RMK AO2 LTG DSNT NW RAB40 TSE08 SLPNO $
RODN 170808Z AUTO 21005KT 10SM SCT027 SCT043 30/26 A2977 RMK AO2 TSE08 SLP086 $
RODN 170756Z AUTO 22005KT 10SM TS BKN026 BKN043 30/26 A2977 RMK AO2 TSB47 CIG 026V032 BKN026 V SCT SLP086 T02980255 $
RODN 170747Z 21005KT 10SM TS SCT026 BKN032 OVC043 30/26 A2976 RMK AO2A TSB47 SLP082 $
RODN 170739Z AUTO 21005KT 10SM TS BKN026 OVC035 30/25 A2976 RMK AO2 TSB39 CIG 026V035 SLP082 $
RODN 170726Z AUTO 22008KT 10SM FEW024 SCT030 OVC039 30/26 A2976 RMK AO2 SLP082 $
RODN 170656Z AUTO 21009KT 10SM OVC020 30/26 A2977 RMK AO2 RAB00E11DZB11E17 SLP086 P0000 T03010262 $
RODN 170647Z AUTO 21009KT 10SM OVC018 30/26 A2976 RMK AO2 RAB00E11DZB11E17 CIG 018V026 SLP082 $
RODN 170617Z AUTO 25007KT 10SM BKN026 OVC050 30/26 A2977 RMK AO2 RAB00E11DZB11E17 CIG 017 RWY23 SLP086 $
RODN 170600Z AUTO 28006KT 10SM -RA SCT028 OVC050 31/26 A2977 RMK AO2 RAB00 SLP085 $
RODN 170556Z AUTO 30006KT 10SM SCT028 BKN043 OVC050 30/26 A2976 RMK AO2 RAB24E43 SLP082 P0000 60000 T03040263 10339 20304 57012 $
RODN 170543Z AUTO 30007KT 10SM FEW030 SCT034 BKN045 OVC055 31/27 A2977 RMK AO2 RAB24E43 SLP085 $
RODN 170524Z AUTO 29008KT 10SM -RA OVC034 31/26 A2977 RMK AO2 RAB24 SLP085 $
RODN 170456Z AUTO 29008KT 10SM BKN034 32/26 A2977 RMK AO2 SLP085 T03240262 $
RODN 170356Z AUTO 16006KT 10SM FEW033 FEW049 SCT200 34/25 A2978 RMK AO2 SLP089 T03360250 $
RODN 170256Z AUTO 19004KT 10SM CLR 33/25 A2980 RMK AO2 SLP095 T03290249 53000 $
RODN 170156Z AUTO 11006KT 10SM SCT026 33/25 A2980 RMK AO2 SLP095 T03250250 $
RODN 170141Z AUTO 15007KT 10SM BKN026 BKN032 32/26 A2981 RMK AO2 SLP099 $
RODN 170056Z AUTO 13007KT 10SM FEW026 32/25 A2979 RMK AO2 SLP092 T03190250 $
RODN 162356Z AUTO 11007KT 10SM FEW020 31/25 A2980 RMK AO2 SLP096 T03110254 10311 20273 $
RODN 162256Z AUTO 13009KT 10SM CLR 30/26 A2979 RMK AO2 SLP092 T03000255 $
RODN 162156Z AUTO 14003KT 10SM CLR 29/26 A2979 RMK AO2 SLP092 T02910255 $
RODN 162056Z 14003KT 10SM FEW020 SCT200 28/25 A2978 RMK A02A SLP089 T02800252 55005 $
RODN 161956Z AUTO 00000KT 10SM CLR 27/25 A2978 RMK AO2 SLP089 T02740248 $
RODN 161856Z AUTO 16005KT 10SM CLR 28/25 A2979 RMK AO2 SLP092 T02800252 $
RODN 161756Z AUTO 16003KT 10SM FEW020 28/25 A2980 RMK AO2 SLP095 60000 T02820254 10294 20281 55004 $
RODN 161656Z AUTO 17004KT 10SM CLR 28/26 A2980 RMK AO2 SLP095 T02820256 $
RODN 161556Z AUTO 16005KT 10SM CLR 28/26 A2979 RMK AO2 SLP092 T02820256 $
RODN 161456Z AUTO 18003KT 10SM CLR 28/26 A2981 RMK AO2 SLP099 60000 T02840258 403320283 58000 $
RODN 161356Z AUTO 00000KT 10SM FEW019 FEW037 28/26 A2981 RMK AO2 RAB16E23 SLP099 P0000 T02840258 $